Terminal Aerodrome Forecast
Issued by NWS

Home | Current Version | Previous Version | Text Only | Print | Product List | Glossary On
Versions: 1 2 3 4 5 6 7 8 9 10 11 12 13 14 15 16 17 18 19
000
FTUS43 KDVN 271426 AAB
TAFCID
TAF AMD
KCID 271426Z 2714/2812 21009KT 4SM BR SCT009 OVC015
      TEMPO 2714/2715 3SM BR OVC005
     FM271600 20005KT P6SM FEW035 BKN250
     FM280500 08004KT 4SM BR SCT250=

USA.gov is the U.S. government's official web portal to all federal, state and local government web resources and services.